sensor_id;sensor_type;location;lat;lon;timestamp;temperature;humidity
70986;DHT22;58645;43.068;25.610;2023-07-31T00:01:49;23.10;76.60
70986;DHT22;58645;43.068;25.610;2023-07-31T00:04:15;23.20;76.80
70986;DHT22;58645;43.068;25.610;2023-07-31T00:06:41;23.20;76.80
70986;DHT22;58645;43.068;25.610;2023-07-31T00:09:06;23.20;76.90
70986;DHT22;58645;43.068;25.610;2023-07-31T00:11:32;23.20;77.00
70986;DHT22;58645;43.068;25.610;2023-07-31T00:13:58;23.20;77.30
70986;DHT22;58645;43.068;25.610;2023-07-31T00:16:24;23.10;77.90
70986;DHT22;58645;43.068;25.610;2023-07-31T00:18:49;23.10;78.60
70986;DHT22;58645;43.068;25.610;2023-07-31T00:21:15;23.10;78.90
70986;DHT22;58645;43.068;25.610;2023-07-31T00:23:40;23.10;79.60
70986;DHT22;58645;43.068;25.610;2023-07-31T00:26:06;23.10;80.30
70986;DHT22;58645;43.068;25.610;2023-07-31T00:28:32;23.10;80.60
70986;DHT22;58645;43.068;25.610;2023-07-31T00:30:58;23.10;80.90
70986;DHT22;58645;43.068;25.610;2023-07-31T00:33:23;23.00;81.20
70986;DHT22;58645;43.068;25.610;2023-07-31T00:35:49;23.00;81.30
70986;DHT22;58645;43.068;25.610;2023-07-31T00:38:15;23.00;81.70
70986;DHT22;58645;43.068;25.610;2023-07-31T00:40:41;23.10;81.80
70986;DHT22;58645;43.068;25.610;2023-07-31T00:43:06;23.00;82.30
70986;DHT22;58645;43.068;25.610;2023-07-31T00:45:32;23.10;83.00
70986;DHT22;58645;43.068;25.610;2023-07-31T00:47:58;23.00;83.30
70986;DHT22;58645;43.068;25.610;2023-07-31T00:50:25;23.00;84.20
70986;DHT22;58645;43.068;25.610;2023-07-31T00:52:50;23.10;85.00
70986;DHT22;58645;43.068;25.610;2023-07-31T00:55:17;23.00;85.40
70986;DHT22;58645;43.068;25.610;2023-07-31T00:57:43;23.00;86.40
70986;DHT22;58645;43.068;25.610;2023-07-31T01:00:10;23.10;86.60
70986;DHT22;58645;43.068;25.610;2023-07-31T01:02:37;23.10;87.00
70986;DHT22;58645;43.068;25.610;2023-07-31T01:05:03;23.10;87.90
70986;DHT22;58645;43.068;25.610;2023-07-31T01:07:45;23.10;88.90
70986;DHT22;58645;43.068;25.610;2023-07-31T01:10:24;23.10;89.60
70986;DHT22;58645;43.068;25.610;2023-07-31T01:12:53;23.10;91.00
70986;DHT22;58645;43.068;25.610;2023-07-31T01:15:21;23.10;92.40
70986;DHT22;58645;43.068;25.610;2023-07-31T01:17:46;23.00;92.40
70986;DHT22;58645;43.068;25.610;2023-07-31T01:20:15;23.00;93.80
70986;DHT22;58645;43.068;25.610;2023-07-31T01:28:31;23.00;95.70
70986;DHT22;58645;43.068;25.610;2023-07-31T01:31:00;23.00;98.20
70986;DHT22;58645;43.068;25.610;2023-07-31T01:33:28;23.10;98.80
70986;DHT22;58645;43.068;25.610;2023-07-31T01:35:54;23.10;99.90
70986;DHT22;58645;43.068;25.610;2023-07-31T01:38:21;23.10;99.90
70986;DHT22;58645;43.068;25.610;2023-07-31T01:40:51;23.10;99.90
70986;DHT22;58645;43.068;25.610;2023-07-31T01:43:18;23.10;99.90
70986;DHT22;58645;43.068;25.610;2023-07-31T01:45:44;23.10;99.90
70986;DHT22;58645;43.068;25.610;2023-07-31T01:48:09;23.10;99.90
70986;DHT22;58645;43.068;25.610;2023-07-31T01:50:35;23.10;99.90
70986;DHT22;58645;43.068;25.610;2023-07-31T01:53:01;23.10;99.90
70986;DHT22;58645;43.068;25.610;2023-07-31T01:55:26;23.10;99.90
70986;DHT22;58645;43.068;25.610;2023-07-31T01:57:52;23.10;99.90
70986;DHT22;58645;43.068;25.610;2023-07-31T02:00:18;23.10;99.90
70986;DHT22;58645;43.068;25.610;2023-07-31T02:02:44;23.00;99.90
70986;DHT22;58645;43.068;25.610;2023-07-31T02:05:10;23.00;99.90
70986;DHT22;58645;43.068;25.610;2023-07-31T02:07:35;22.90;99.90
70986;DHT22;58645;43.068;25.610;2023-07-31T02:10:01;22.90;99.90
70986;DHT22;58645;43.068;25.610;2023-07-31T02:12:28;22.90;99.90
70986;DHT22;58645;43.068;25.610;2023-07-31T02:14:56;22.90;99.90
70986;DHT22;58645;43.068;25.610;2023-07-31T02:17:22;22.90;99.90
70986;DHT22;58645;43.068;25.610;2023-07-31T02:19:48;22.80;99.90
70986;DHT22;58645;43.068;25.610;2023-07-31T02:22:13;22.80;99.90
70986;DHT22;58645;43.068;25.610;2023-07-31T02:24:39;22.80;99.90
70986;DHT22;58645;43.068;25.610;2023-07-31T02:27:05;22.80;99.90
70986;DHT22;58645;43.068;25.610;2023-07-31T02:29:31;22.80;99.90
70986;DHT22;58645;43.068;25.610;2023-07-31T02:31:56;22.80;99.90
70986;DHT22;58645;43.068;25.610;2023-07-31T02:34:22;22.80;99.90
70986;DHT22;58645;43.068;25.610;2023-07-31T02:36:48;22.80;99.90
70986;DHT22;58645;43.068;25.610;2023-07-31T02:39:13;22.80;99.90
70986;DHT22;58645;43.068;25.610;2023-07-31T02:41:39;22.70;99.90
70986;DHT22;58645;43.068;25.610;2023-07-31T02:44:05;22.70;99.90
70986;DHT22;58645;43.068;25.610;2023-07-31T02:46:30;22.70;99.90
70986;DHT22;58645;43.068;25.610;2023-07-31T02:48:56;22.70;99.90
70986;DHT22;58645;43.068;25.610;2023-07-31T02:51:22;22.60;99.90
70986;DHT22;58645;43.068;25.610;2023-07-31T02:53:48;22.60;99.90
70986;DHT22;58645;43.068;25.610;2023-07-31T02:56:14;22.60;99.90
70986;DHT22;58645;43.068;25.610;2023-07-31T02:58:39;22.60;99.90
70986;DHT22;58645;43.068;25.610;2023-07-31T03:01:05;22.50;99.90
70986;DHT22;58645;43.068;25.610;2023-07-31T03:03:31;22.50;99.90
70986;DHT22;58645;43.068;25.610;2023-07-31T03:05:56;22.50;99.90
70986;DHT22;58645;43.068;25.610;2023-07-31T03:08:23;22.50;99.90
70986;DHT22;58645;43.068;25.610;2023-07-31T03:10:49;22.40;99.90
70986;DHT22;58645;43.068;25.610;2023-07-31T03:13:14;22.40;99.90
70986;DHT22;58645;43.068;25.610;2023-07-31T03:15:42;22.40;99.90
70986;DHT22;58645;43.068;25.610;2023-07-31T03:18:09;22.50;99.90
70986;DHT22;58645;43.068;25.610;2023-07-31T03:20:34;22.40;99.90
70986;DHT22;58645;43.068;25.610;2023-07-31T03:23:00;22.30;99.90
70986;DHT22;58645;43.068;25.610;2023-07-31T03:25:25;22.30;99.90
70986;DHT22;58645;43.068;25.610;2023-07-31T03:27:51;22.40;99.90
70986;DHT22;58645;43.068;25.610;2023-07-31T03:30:17;22.40;99.90
70986;DHT22;58645;43.068;25.610;2023-07-31T03:32:42;22.40;99.90
70986;DHT22;58645;43.068;25.610;2023-07-31T03:35:08;22.40;99.90
70986;DHT22;58645;43.068;25.610;2023-07-31T03:37:34;22.40;99.90
70986;DHT22;58645;43.068;25.610;2023-07-31T03:40:00;22.40;99.90
70986;DHT22;58645;43.068;25.610;2023-07-31T03:42:25;22.30;99.90
70986;DHT22;58645;43.068;25.610;2023-07-31T03:44:51;22.30;99.90
70986;DHT22;58645;43.068;25.610;2023-07-31T03:47:17;22.30;99.90
70986;DHT22;58645;43.068;25.610;2023-07-31T03:49:43;22.30;99.90
70986;DHT22;58645;43.068;25.610;2023-07-31T03:52:08;22.20;99.90
70986;DHT22;58645;43.068;25.610;2023-07-31T03:54:34;22.30;99.90
70986;DHT22;58645;43.068;25.610;2023-07-31T03:57:00;22.30;99.90
70986;DHT22;58645;43.068;25.610;2023-07-31T03:59:25;22.30;99.90
70986;DHT22;58645;43.068;25.610;2023-07-31T04:01:51;22.20;99.90
70986;DHT22;58645;43.068;25.610;2023-07-31T04:04:17;22.30;99.90
70986;DHT22;58645;43.068;25.610;2023-07-31T04:06:42;22.30;99.90
70986;DHT22;58645;43.068;25.610;2023-07-31T04:09:08;22.30;99.90
70986;DHT22;58645;43.068;25.610;2023-07-31T04:11:34;22.30;99.90
70986;DHT22;58645;43.068;25.610;2023-07-31T04:13:59;22.30;99.90
70986;DHT22;58645;43.068;25.610;2023-07-31T04:16:25;22.30;99.90
70986;DHT22;58645;43.068;25.610;2023-07-31T04:18:51;22.30;99.90
70986;DHT22;58645;43.068;25.610;2023-07-31T04:21:16;22.40;99.90
70986;DHT22;58645;43.068;25.610;2023-07-31T04:23:43;22.30;99.90
70986;DHT22;58645;43.068;25.610;2023-07-31T04:26:08;22.30;99.90
70986;DHT22;58645;43.068;25.610;2023-07-31T04:28:34;22.30;99.90
70986;DHT22;58645;43.068;25.610;2023-07-31T04:31:00;22.20;99.90
70986;DHT22;58645;43.068;25.610;2023-07-31T04:33:25;22.20;99.90
70986;DHT22;58645;43.068;25.610;2023-07-31T04:35:52;22.20;99.90
70986;DHT22;58645;43.068;25.610;2023-07-31T04:38:21;22.30;99.90
70986;DHT22;58645;43.068;25.610;2023-07-31T04:40:47;22.30;99.90
70986;DHT22;58645;43.068;25.610;2023-07-31T04:43:13;22.40;99.90
70986;DHT22;58645;43.068;25.610;2023-07-31T04:45:39;22.40;99.90
70986;DHT22;58645;43.068;25.610;2023-07-31T04:48:04;22.40;99.90
70986;DHT22;58645;43.068;25.610;2023-07-31T04:50:30;22.40;99.90
70986;DHT22;58645;43.068;25.610;2023-07-31T04:52:56;22.50;99.90
70986;DHT22;58645;43.068;25.610;2023-07-31T04:55:22;22.50;99.90
70986;DHT22;58645;43.068;25.610;2023-07-31T04:57:48;22.50;99.90
70986;DHT22;58645;43.068;25.610;2023-07-31T05:00:13;22.50;99.90
70986;DHT22;58645;43.068;25.610;2023-07-31T05:02:39;22.50;99.90
70986;DHT22;58645;43.068;25.610;2023-07-31T05:05:05;22.50;99.90
70986;DHT22;58645;43.068;25.610;2023-07-31T05:07:31;22.50;99.90
70986;DHT22;58645;43.068;25.610;2023-07-31T05:09:56;22.60;99.90
70986;DHT22;58645;43.068;25.610;2023-07-31T05:12:22;22.60;99.90
70986;DHT22;58645;43.068;25.610;2023-07-31T05:14:48;22.70;99.90
70986;DHT22;58645;43.068;25.610;2023-07-31T05:17:13;22.70;99.90
70986;DHT22;58645;43.068;25.610;2023-07-31T05:19:39;22.80;99.90
70986;DHT22;58645;43.068;25.610;2023-07-31T05:22:05;22.80;99.90
70986;DHT22;58645;43.068;25.610;2023-07-31T05:24:31;22.80;99.90
70986;DHT22;58645;43.068;25.610;2023-07-31T05:26:57;22.80;99.90
70986;DHT22;58645;43.068;25.610;2023-07-31T05:29:23;22.70;99.90
70986;DHT22;58645;43.068;25.610;2023-07-31T05:31:48;22.70;99.90
70986;DHT22;58645;43.068;25.610;2023-07-31T05:34:14;22.80;99.90
70986;DHT22;58645;43.068;25.610;2023-07-31T05:36:40;22.80;99.90
70986;DHT22;58645;43.068;25.610;2023-07-31T05:39:05;22.80;99.90
70986;DHT22;58645;43.068;25.610;2023-07-31T05:41:31;22.80;99.90
70986;DHT22;58645;43.068;25.610;2023-07-31T05:43:57;22.80;99.90
70986;DHT22;58645;43.068;25.610;2023-07-31T05:46:23;22.80;99.90
70986;DHT22;58645;43.068;25.610;2023-07-31T05:48:48;22.90;99.90
70986;DHT22;58645;43.068;25.610;2023-07-31T05:51:14;22.90;99.90
70986;DHT22;58645;43.068;25.610;2023-07-31T05:53:40;22.90;99.90
70986;DHT22;58645;43.068;25.610;2023-07-31T05:56:06;23.00;99.90
70986;DHT22;58645;43.068;25.610;2023-07-31T05:58:32;23.00;99.90
70986;DHT22;58645;43.068;25.610;2023-07-31T06:00:57;23.10;99.90
70986;DHT22;58645;43.068;25.610;2023-07-31T06:03:23;23.20;99.90
70986;DHT22;58645;43.068;25.610;2023-07-31T06:05:49;23.30;99.90
70986;DHT22;58645;43.068;25.610;2023-07-31T06:08:15;23.30;99.90
70986;DHT22;58645;43.068;25.610;2023-07-31T06:10:41;23.30;99.90
70986;DHT22;58645;43.068;25.610;2023-07-31T06:13:06;23.40;99.90
70986;DHT22;58645;43.068;25.610;2023-07-31T06:15:32;23.30;99.90
70986;DHT22;58645;43.068;25.610;2023-07-31T06:17:57;23.30;99.90
70986;DHT22;58645;43.068;25.610;2023-07-31T06:20:24;23.30;99.90
70986;DHT22;58645;43.068;25.610;2023-07-31T06:22:50;23.30;99.90
70986;DHT22;58645;43.068;25.610;2023-07-31T06:25:15;23.30;99.90
70986;DHT22;58645;43.068;25.610;2023-07-31T06:27:41;23.40;99.90
70986;DHT22;58645;43.068;25.610;2023-07-31T06:30:07;23.30;99.90
70986;DHT22;58645;43.068;25.610;2023-07-31T06:32:33;23.30;99.90
70986;DHT22;58645;43.068;25.610;2023-07-31T06:34:58;23.30;99.90
70986;DHT22;58645;43.068;25.610;2023-07-31T06:37:24;23.40;99.90
70986;DHT22;58645;43.068;25.610;2023-07-31T06:39:50;23.40;99.90
70986;DHT22;58645;43.068;25.610;2023-07-31T06:42:15;23.40;99.90
70986;DHT22;58645;43.068;25.610;2023-07-31T06:44:41;23.50;99.90
70986;DHT22;58645;43.068;25.610;2023-07-31T06:47:06;23.50;99.90
70986;DHT22;58645;43.068;25.610;2023-07-31T06:49:32;23.50;99.90
70986;DHT22;58645;43.068;25.610;2023-07-31T06:51:58;23.60;99.90
70986;DHT22;58645;43.068;25.610;2023-07-31T06:54:23;23.60;99.90
70986;DHT22;58645;43.068;25.610;2023-07-31T06:56:49;23.60;99.90
70986;DHT22;58645;43.068;25.610;2023-07-31T06:59:15;23.50;99.90
70986;DHT22;58645;43.068;25.610;2023-07-31T07:01:40;23.60;99.90
70986;DHT22;58645;43.068;25.610;2023-07-31T07:04:06;23.60;99.90
70986;DHT22;58645;43.068;25.610;2023-07-31T07:06:32;23.50;99.90
70986;DHT22;58645;43.068;25.610;2023-07-31T07:08:57;23.50;99.90
70986;DHT22;58645;43.068;25.610;2023-07-31T07:11:23;23.40;99.90
70986;DHT22;58645;43.068;25.610;2023-07-31T07:13:49;23.30;99.90
70986;DHT22;58645;43.068;25.610;2023-07-31T07:16:15;23.40;99.90
70986;DHT22;58645;43.068;25.610;2023-07-31T07:18:40;23.40;99.90
70986;DHT22;58645;43.068;25.610;2023-07-31T07:21:06;23.40;99.90
70986;DHT22;58645;43.068;25.610;2023-07-31T07:23:31;23.30;99.90
70986;DHT22;58645;43.068;25.610;2023-07-31T07:25:57;23.40;99.90
70986;DHT22;58645;43.068;25.610;2023-07-31T07:28:23;23.50;99.90
70986;DHT22;58645;43.068;25.610;2023-07-31T07:30:52;23.60;99.90
70986;DHT22;58645;43.068;25.610;2023-07-31T07:33:20;23.70;99.90
70986;DHT22;58645;43.068;25.610;2023-07-31T07:35:46;23.90;99.90
70986;DHT22;58645;43.068;25.610;2023-07-31T07:38:14;24.10;99.90
70986;DHT22;58645;43.068;25.610;2023-07-31T07:40:40;24.30;99.90
70986;DHT22;58645;43.068;25.610;2023-07-31T07:43:06;24.50;99.90
70986;DHT22;58645;43.068;25.610;2023-07-31T07:45:32;24.80;99.90
70986;DHT22;58645;43.068;25.610;2023-07-31T07:47:57;25.10;99.90
70986;DHT22;58645;43.068;25.610;2023-07-31T07:50:24;25.30;99.90
70986;DHT22;58645;43.068;25.610;2023-07-31T07:52:50;25.60;99.90
70986;DHT22;58645;43.068;25.610;2023-07-31T07:55:16;25.70;99.90
70986;DHT22;58645;43.068;25.610;2023-07-31T07:57:42;26.80;99.90
70986;DHT22;58645;43.068;25.610;2023-07-31T08:00:10;27.30;99.90
70986;DHT22;58645;43.068;25.610;2023-07-31T08:02:36;27.50;99.90
70986;DHT22;58645;43.068;25.610;2023-07-31T08:05:01;27.80;96.60
70986;DHT22;58645;43.068;25.610;2023-07-31T08:07:27;27.70;95.10
70986;DHT22;58645;43.068;25.610;2023-07-31T08:09:53;27.30;95.60
70986;DHT22;58645;43.068;25.610;2023-07-31T08:12:19;26.90;95.30
70986;DHT22;58645;43.068;25.610;2023-07-31T08:14:44;26.70;95.90
70986;DHT22;58645;43.068;25.610;2023-07-31T08:17:10;26.60;95.30
70986;DHT22;58645;43.068;25.610;2023-07-31T08:19:36;26.70;95.80
70986;DHT22;58645;43.068;25.610;2023-07-31T08:22:02;26.60;95.50
70986;DHT22;58645;43.068;25.610;2023-07-31T08:24:27;26.40;94.90
70986;DHT22;58645;43.068;25.610;2023-07-31T08:26:53;26.30;95.30
70986;DHT22;58645;43.068;25.610;2023-07-31T08:29:19;26.20;96.30
70986;DHT22;58645;43.068;25.610;2023-07-31T08:31:44;26.10;96.70
70986;DHT22;58645;43.068;25.610;2023-07-31T08:34:10;26.30;97.80
70986;DHT22;58645;43.068;25.610;2023-07-31T08:36:36;26.90;94.40
70986;DHT22;58645;43.068;25.610;2023-07-31T08:39:01;27.00;93.10
70986;DHT22;58645;43.068;25.610;2023-07-31T08:41:27;27.00;92.30
70986;DHT22;58645;43.068;25.610;2023-07-31T08:43:53;27.10;92.10
70986;DHT22;58645;43.068;25.610;2023-07-31T08:46:20;27.10;90.90
70986;DHT22;58645;43.068;25.610;2023-07-31T08:48:46;27.90;88.10
70986;DHT22;58645;43.068;25.610;2023-07-31T08:51:14;28.30;86.20
70986;DHT22;58645;43.068;25.610;2023-07-31T08:53:40;28.30;86.00
70986;DHT22;58645;43.068;25.610;2023-07-31T08:56:06;28.80;84.30
70986;DHT22;58645;43.068;25.610;2023-07-31T08:58:33;29.00;82.70
70986;DHT22;58645;43.068;25.610;2023-07-31T09:01:01;28.60;82.30
70986;DHT22;58645;43.068;25.610;2023-07-31T09:03:29;28.50;83.10
70986;DHT22;58645;43.068;25.610;2023-07-31T09:05:59;29.10;80.80
70986;DHT22;58645;43.068;25.610;2023-07-31T09:08:26;29.50;81.50
70986;DHT22;58645;43.068;25.610;2023-07-31T09:10:59;29.60;77.90
70986;DHT22;58645;43.068;25.610;2023-07-31T09:13:27;29.60;77.60
70986;DHT22;58645;43.068;25.610;2023-07-31T09:15:59;29.40;75.30
70986;DHT22;58645;43.068;25.610;2023-07-31T09:18:25;30.20;75.00
70986;DHT22;58645;43.068;25.610;2023-07-31T09:21:09;30.30;74.00
70986;DHT22;58645;43.068;25.610;2023-07-31T09:23:42;30.10;70.70
70986;DHT22;58645;43.068;25.610;2023-07-31T09:26:09;29.60;71.70
70986;DHT22;58645;43.068;25.610;2023-07-31T09:28:34;29.30;72.90
70986;DHT22;58645;43.068;25.610;2023-07-31T09:31:00;29.10;71.60
70986;DHT22;58645;43.068;25.610;2023-07-31T09:33:26;29.50;72.30
70986;DHT22;58645;43.068;25.610;2023-07-31T09:35:52;30.80;67.30
70986;DHT22;58645;43.068;25.610;2023-07-31T09:38:17;30.60;66.20
70986;DHT22;58645;43.068;25.610;2023-07-31T09:40:48;30.30;67.00
70986;DHT22;58645;43.068;25.610;2023-07-31T09:43:20;30.10;66.60
70986;DHT22;58645;43.068;25.610;2023-07-31T09:45:46;31.00;64.80
70986;DHT22;58645;43.068;25.610;2023-07-31T09:48:17;31.20;62.40
70986;DHT22;58645;43.068;25.610;2023-07-31T09:50:45;32.40;61.60
70986;DHT22;58645;43.068;25.610;2023-07-31T09:53:10;32.40;60.20
70986;DHT22;58645;43.068;25.610;2023-07-31T09:55:37;33.00;57.90
70986;DHT22;58645;43.068;25.610;2023-07-31T09:58:08;33.30;57.80
70986;DHT22;58645;43.068;25.610;2023-07-31T10:00:35;33.70;56.30
70986;DHT22;58645;43.068;25.610;2023-07-31T10:03:04;32.90;55.60
70986;DHT22;58645;43.068;25.610;2023-07-31T10:05:35;32.40;57.80
70986;DHT22;58645;43.068;25.610;2023-07-31T10:08:01;32.00;58.30
70986;DHT22;58645;43.068;25.610;2023-07-31T10:10:27;31.60;58.30
70986;DHT22;58645;43.068;25.610;2023-07-31T10:12:54;31.10;60.10
70986;DHT22;58645;43.068;25.610;2023-07-31T10:15:21;31.40;60.00
70986;DHT22;58645;43.068;25.610;2023-07-31T10:17:48;32.30;59.60
70986;DHT22;58645;43.068;25.610;2023-07-31T10:20:16;32.40;57.50
70986;DHT22;58645;43.068;25.610;2023-07-31T10:22:42;32.00;58.10
70986;DHT22;58645;43.068;25.610;2023-07-31T10:25:09;31.60;58.40
70986;DHT22;58645;43.068;25.610;2023-07-31T10:27:36;31.10;59.70
70986;DHT22;58645;43.068;25.610;2023-07-31T10:30:05;31.10;60.30
70986;DHT22;58645;43.068;25.610;2023-07-31T10:32:33;31.20;59.40
70986;DHT22;58645;43.068;25.610;2023-07-31T10:35:02;32.00;59.90
70986;DHT22;58645;43.068;25.610;2023-07-31T10:37:35;32.90;55.20
70986;DHT22;58645;43.068;25.610;2023-07-31T10:40:18;32.80;54.30
70986;DHT22;58645;43.068;25.610;2023-07-31T10:42:51;33.00;54.90
70986;DHT22;58645;43.068;25.610;2023-07-31T10:45:32;32.70;54.40
70986;DHT22;58645;43.068;25.610;2023-07-31T10:48:03;32.10;56.00
70986;DHT22;58645;43.068;25.610;2023-07-31T10:50:31;31.70;56.50
70986;DHT22;58645;43.068;25.610;2023-07-31T10:52:58;31.50;57.90
70986;DHT22;58645;43.068;25.610;2023-07-31T11:00:31;30.80;60.40
70986;DHT22;58645;43.068;25.610;2023-07-31T11:03:09;30.80;59.50
70986;DHT22;58645;43.068;25.610;2023-07-31T11:08:25;30.50;59.40
70986;DHT22;58645;43.068;25.610;2023-07-31T11:11:06;30.10;60.00
70986;DHT22;58645;43.068;25.610;2023-07-31T11:13:52;30.10;60.40
70986;DHT22;58645;43.068;25.610;2023-07-31T11:16:23;30.40;60.40
70986;DHT22;58645;43.068;25.610;2023-07-31T11:18:50;30.40;60.30
70986;DHT22;58645;43.068;25.610;2023-07-31T11:21:22;30.50;60.30
70986;DHT22;58645;43.068;25.610;2023-07-31T11:23:49;30.10;60.70
70986;DHT22;58645;43.068;25.610;2023-07-31T11:26:16;30.20;61.50
70986;DHT22;58645;43.068;25.610;2023-07-31T11:28:42;30.40;59.80
70986;DHT22;58645;43.068;25.610;2023-07-31T11:31:10;30.90;58.80
70986;DHT22;58645;43.068;25.610;2023-07-31T11:33:36;30.90;58.70
70986;DHT22;58645;43.068;25.610;2023-07-31T11:36:02;30.90;58.90
70986;DHT22;58645;43.068;25.610;2023-07-31T11:38:32;31.00;59.10
70986;DHT22;58645;43.068;25.610;2023-07-31T11:41:03;31.20;57.70
70986;DHT22;58645;43.068;25.610;2023-07-31T11:43:30;31.50;58.20
70986;DHT22;58645;43.068;25.610;2023-07-31T11:45:58;32.30;56.10
70986;DHT22;58645;43.068;25.610;2023-07-31T11:48:26;32.90;54.10
70986;DHT22;58645;43.068;25.610;2023-07-31T11:50:55;33.10;54.30
70986;DHT22;58645;43.068;25.610;2023-07-31T11:53:35;33.20;53.00
70986;DHT22;58645;43.068;25.610;2023-07-31T11:56:03;32.80;52.10
70986;DHT22;58645;43.068;25.610;2023-07-31T11:58:34;32.70;53.50
70986;DHT22;58645;43.068;25.610;2023-07-31T12:01:00;32.20;54.20
70986;DHT22;58645;43.068;25.610;2023-07-31T12:03:26;31.70;54.50
70986;DHT22;58645;43.068;25.610;2023-07-31T12:05:55;32.10;54.00
70986;DHT22;58645;43.068;25.610;2023-07-31T12:08:23;32.70;52.50
70986;DHT22;58645;43.068;25.610;2023-07-31T12:10:53;32.60;51.90
70986;DHT22;58645;43.068;25.610;2023-07-31T12:13:24;32.10;53.30
70986;DHT22;58645;43.068;25.610;2023-07-31T12:15:57;32.00;53.00
70986;DHT22;58645;43.068;25.610;2023-07-31T12:18:25;31.80;52.90
70986;DHT22;58645;43.068;25.610;2023-07-31T12:20:56;31.60;53.90
70986;DHT22;58645;43.068;25.610;2023-07-31T12:23:26;31.40;54.60
70986;DHT22;58645;43.068;25.610;2023-07-31T12:26:11;31.30;55.10
70986;DHT22;58645;43.068;25.610;2023-07-31T12:31:10;31.40;54.80
70986;DHT22;58645;43.068;25.610;2023-07-31T12:33:37;31.80;54.10
70986;DHT22;58645;43.068;25.610;2023-07-31T12:36:09;31.80;54.30
70986;DHT22;58645;43.068;25.610;2023-07-31T12:38:35;32.00;54.50
70986;DHT22;58645;43.068;25.610;2023-07-31T12:41:01;32.10;53.50
70986;DHT22;58645;43.068;25.610;2023-07-31T12:43:26;31.80;53.70
70986;DHT22;58645;43.068;25.610;2023-07-31T12:45:54;31.90;53.60
70986;DHT22;58645;43.068;25.610;2023-07-31T12:48:20;31.90;54.70
70986;DHT22;58645;43.068;25.610;2023-07-31T12:50:46;32.00;55.20
70986;DHT22;58645;43.068;25.610;2023-07-31T12:53:12;31.90;54.30
70986;DHT22;58645;43.068;25.610;2023-07-31T12:55:40;32.00;54.90
70986;DHT22;58645;43.068;25.610;2023-07-31T12:58:06;31.80;55.00
70986;DHT22;58645;43.068;25.610;2023-07-31T13:00:31;31.30;55.90
70986;DHT22;58645;43.068;25.610;2023-07-31T13:02:57;31.50;56.30
70986;DHT22;58645;43.068;25.610;2023-07-31T13:05:23;31.90;54.90
70986;DHT22;58645;43.068;25.610;2023-07-31T13:07:49;32.30;55.30
70986;DHT22;58645;43.068;25.610;2023-07-31T13:10:15;32.80;53.80
70986;DHT22;58645;43.068;25.610;2023-07-31T13:12:41;33.30;52.70
70986;DHT22;58645;43.068;25.610;2023-07-31T13:15:07;33.10;52.80
70986;DHT22;58645;43.068;25.610;2023-07-31T13:17:33;33.10;52.40
70986;DHT22;58645;43.068;25.610;2023-07-31T13:19:59;33.30;51.40
70986;DHT22;58645;43.068;25.610;2023-07-31T13:22:25;33.30;51.40
70986;DHT22;58645;43.068;25.610;2023-07-31T13:24:51;33.20;52.20
70986;DHT22;58645;43.068;25.610;2023-07-31T13:27:16;32.70;52.30
70986;DHT22;58645;43.068;25.610;2023-07-31T13:29:51;32.60;53.20
70986;DHT22;58645;43.068;25.610;2023-07-31T13:32:18;32.50;53.60
70986;DHT22;58645;43.068;25.610;2023-07-31T13:34:45;32.10;53.90
70986;DHT22;58645;43.068;25.610;2023-07-31T13:37:11;32.00;55.20
70986;DHT22;58645;43.068;25.610;2023-07-31T13:39:37;32.00;55.20
70986;DHT22;58645;43.068;25.610;2023-07-31T13:42:06;31.80;55.60
70986;DHT22;58645;43.068;25.610;2023-07-31T13:44:34;31.60;55.90
70986;DHT22;58645;43.068;25.610;2023-07-31T13:47:00;31.70;56.50
70986;DHT22;58645;43.068;25.610;2023-07-31T13:49:26;31.50;56.00
70986;DHT22;58645;43.068;25.610;2023-07-31T13:51:52;30.90;56.70
70986;DHT22;58645;43.068;25.610;2023-07-31T13:54:18;30.70;57.00
70986;DHT22;58645;43.068;25.610;2023-07-31T13:56:44;30.60;56.80
70986;DHT22;58645;43.068;25.610;2023-07-31T13:59:10;30.60;57.30
70986;DHT22;58645;43.068;25.610;2023-07-31T14:01:36;30.60;57.10
70986;DHT22;58645;43.068;25.610;2023-07-31T14:04:02;30.50;57.40
70986;DHT22;58645;43.068;25.610;2023-07-31T14:06:28;30.40;58.10
70986;DHT22;58645;43.068;25.610;2023-07-31T14:08:53;30.20;58.50
70986;DHT22;58645;43.068;25.610;2023-07-31T14:11:21;30.10;59.00
70986;DHT22;58645;43.068;25.610;2023-07-31T14:13:47;30.10;59.60
70986;DHT22;58645;43.068;25.610;2023-07-31T14:16:13;30.00;59.80
70986;DHT22;58645;43.068;25.610;2023-07-31T14:18:38;30.00;59.50
70986;DHT22;58645;43.068;25.610;2023-07-31T14:21:04;29.90;59.70
70986;DHT22;58645;43.068;25.610;2023-07-31T14:23:30;29.80;59.80
70986;DHT22;58645;43.068;25.610;2023-07-31T14:25:56;29.90;60.70
70986;DHT22;58645;43.068;25.610;2023-07-31T14:28:22;29.80;60.90
70986;DHT22;58645;43.068;25.610;2023-07-31T14:30:47;29.60;60.90
70986;DHT22;58645;43.068;25.610;2023-07-31T14:33:13;29.50;61.70
70986;DHT22;58645;43.068;25.610;2023-07-31T14:35:39;29.50;62.00
70986;DHT22;58645;43.068;25.610;2023-07-31T14:38:04;29.30;62.10
70986;DHT22;58645;43.068;25.610;2023-07-31T14:40:30;29.30;62.10
70986;DHT22;58645;43.068;25.610;2023-07-31T14:42:56;29.20;62.80
70986;DHT22;58645;43.068;25.610;2023-07-31T14:45:21;29.30;62.60
70986;DHT22;58645;43.068;25.610;2023-07-31T14:47:47;29.30;62.10
70986;DHT22;58645;43.068;25.610;2023-07-31T14:50:13;29.20;62.50
70986;DHT22;58645;43.068;25.610;2023-07-31T14:52:38;29.10;63.20
70986;DHT22;58645;43.068;25.610;2023-07-31T14:55:05;29.00;66.50
70986;DHT22;58645;43.068;25.610;2023-07-31T14:57:30;28.90;71.90
70986;DHT22;58645;43.068;25.610;2023-07-31T14:59:56;28.60;72.50
70986;DHT22;58645;43.068;25.610;2023-07-31T15:02:22;28.40;70.00
70986;DHT22;58645;43.068;25.610;2023-07-31T15:04:48;28.20;70.40
70986;DHT22;58645;43.068;25.610;2023-07-31T15:07:13;28.00;71.80
70986;DHT22;58645;43.068;25.610;2023-07-31T15:09:39;27.90;71.80
70986;DHT22;58645;43.068;25.610;2023-07-31T15:12:05;27.90;70.00
70986;DHT22;58645;43.068;25.610;2023-07-31T15:14:31;27.80;71.90
70986;DHT22;58645;43.068;25.610;2023-07-31T15:16:57;27.80;78.90
70986;DHT22;58645;43.068;25.610;2023-07-31T15:19:23;27.70;74.50
70986;DHT22;58645;43.068;25.610;2023-07-31T15:21:49;27.40;79.90
70986;DHT22;58645;43.068;25.610;2023-07-31T15:24:15;26.90;83.50
70986;DHT22;58645;43.068;25.610;2023-07-31T15:26:41;26.20;88.30
70986;DHT22;58645;43.068;25.610;2023-07-31T15:29:09;25.40;96.00